Hlavní strana
METAR-TAF:

METAR-TAF

Letiště :

N'Djamena, Čad

zeměpisná šířka: 12-08N, zeměpisná délka: 015-02E, výška: 295 m

Aktuální stav počasí

Zpráva byla vytvořena před 1 hodinou a 4 minutami, v 14:00 UTC
Severovýchodní vítr 12 kt
Teplota 41°C
Vlhkost vzduchu 7%
Tlak 1005 hPa
Viditelnost 10 km a více
Žádná oblačnost pod 1500 m, nevyskytují se cumulonimby.

METAR: FTTJ 191400Z 04012KT CAVOK 41/M02 Q1005 NOSIG

Čas: 16:04 (15:04 UTC)

Předpověď počasí

Zpráva byla vytvořena před 4 hodinami a 4 minutami, v 11:00 UTC
Předpověď platná od 19 v 12 UTC do 20 v 18 UTC
Severoseverovýchodní vítr 10 kt
Viditelnost: 8000 m

TAF: FTTJ 191100Z 1912/2018 03010KT 8000 NSC

Stav a předpovědi počasí z více než 4 000 letišť (zprávy METAR a TAF).

Červené a žluté tečky na mapě představují dostupné meteorologické stanice.

Když kurzor umístíte na tečku, zobrazí se název stanice.

Pak kliknutím zobrazíte stav a předpověď počasí.

Chcete-li změnit mapu, kliknutím na zelené tlačítko se znaménkem +mapu přiblížíte, kliknutím na zelené tlačítko se znaménkem – mapu oddálíte a kliknutím na zelené šipky přejdete na sousední mapy.


METAR-TAF: